sensor_id;sensor_type;location;lat;lon;timestamp;temperature;humidity
16980;DHT22;42288;52.182;21.156;2023-02-18T00:01:25;9.30;99.90
16980;DHT22;42288;52.182;21.156;2023-02-18T00:03:51;9.00;99.90
16980;DHT22;42288;52.182;21.156;2023-02-18T00:06:20;8.70;99.90
16980;DHT22;42288;52.182;21.156;2023-02-18T00:08:46;8.70;99.90
16980;DHT22;42288;52.182;21.156;2023-02-18T00:11:13;8.50;99.90
16980;DHT22;42288;52.182;21.156;2023-02-18T00:13:39;8.50;99.90
16980;DHT22;42288;52.182;21.156;2023-02-18T00:16:10;8.40;99.90
16980;DHT22;42288;52.182;21.156;2023-02-18T00:18:36;8.40;99.90
16980;DHT22;42288;52.182;21.156;2023-02-18T00:21:03;8.40;99.90
16980;DHT22;42288;52.182;21.156;2023-02-18T00:23:29;8.40;99.90
16980;DHT22;42288;52.182;21.156;2023-02-18T00:28:28;8.30;99.90
16980;DHT22;42288;52.182;21.156;2023-02-18T00:30:54;8.40;99.90
16980;DHT22;42288;52.182;21.156;2023-02-18T00:33:19;8.40;99.90
16980;DHT22;42288;52.182;21.156;2023-02-18T00:35:45;8.40;99.90
16980;DHT22;42288;52.182;21.156;2023-02-18T00:38:11;8.40;99.90
16980;DHT22;42288;52.182;21.156;2023-02-18T00:40:37;8.40;99.90
16980;DHT22;42288;52.182;21.156;2023-02-18T00:43:03;8.40;99.90
16980;DHT22;42288;52.182;21.156;2023-02-18T00:45:28;8.40;99.90
16980;DHT22;42288;52.182;21.156;2023-02-18T00:47:54;8.50;99.90
16980;DHT22;42288;52.182;21.156;2023-02-18T00:50:20;8.50;99.90
16980;DHT22;42288;52.182;21.156;2023-02-18T00:52:45;8.60;99.90
16980;DHT22;42288;52.182;21.156;2023-02-18T00:55:11;8.60;99.90
16980;DHT22;42288;52.182;21.156;2023-02-18T00:57:36;8.60;99.90
16980;DHT22;42288;52.182;21.156;2023-02-18T01:00:04;8.60;99.90
16980;DHT22;42288;52.182;21.156;2023-02-18T01:02:31;8.60;99.90
16980;DHT22;42288;52.182;21.156;2023-02-18T01:04:56;8.60;99.90
16980;DHT22;42288;52.182;21.156;2023-02-18T01:07:22;8.50;99.90
16980;DHT22;42288;52.182;21.156;2023-02-18T01:09:47;8.50;99.90
16980;DHT22;42288;52.182;21.156;2023-02-18T01:12:13;8.50;99.90
16980;DHT22;42288;52.182;21.156;2023-02-18T01:14:39;8.60;99.90
16980;DHT22;42288;52.182;21.156;2023-02-18T01:17:05;8.50;99.90
16980;DHT22;42288;52.182;21.156;2023-02-18T01:19:30;8.50;99.90
16980;DHT22;42288;52.182;21.156;2023-02-18T01:21:56;8.50;99.90
16980;DHT22;42288;52.182;21.156;2023-02-18T01:24:21;8.60;99.90
16980;DHT22;42288;52.182;21.156;2023-02-18T01:26:47;8.60;99.90
16980;DHT22;42288;52.182;21.156;2023-02-18T01:29:13;8.50;99.90
16980;DHT22;42288;52.182;21.156;2023-02-18T01:31:38;8.50;99.90
16980;DHT22;42288;52.182;21.156;2023-02-18T01:34:04;8.50;99.90
16980;DHT22;42288;52.182;21.156;2023-02-18T01:36:29;8.50;99.90
16980;DHT22;42288;52.182;21.156;2023-02-18T01:38:55;8.50;99.90
16980;DHT22;42288;52.182;21.156;2023-02-18T01:41:21;8.50;99.90
16980;DHT22;42288;52.182;21.156;2023-02-18T01:43:46;8.50;99.90
16980;DHT22;42288;52.182;21.156;2023-02-18T01:48:48;8.60;99.90
16980;DHT22;42288;52.182;21.156;2023-02-18T01:51:26;8.70;99.90
16980;DHT22;42288;52.182;21.156;2023-02-18T01:56:34;8.70;99.90
16980;DHT22;42288;52.182;21.156;2023-02-18T01:59:05;8.70;99.90
16980;DHT22;42288;52.182;21.156;2023-02-18T02:01:31;8.70;99.90
16980;DHT22;42288;52.182;21.156;2023-02-18T02:03:58;8.70;99.90
16980;DHT22;42288;52.182;21.156;2023-02-18T02:06:24;8.80;99.90
16980;DHT22;42288;52.182;21.156;2023-02-18T02:08:52;8.80;99.90
16980;DHT22;42288;52.182;21.156;2023-02-18T02:11:44;8.80;99.90
16980;DHT22;42288;52.182;21.156;2023-02-18T02:14:29;8.80;99.90
16980;DHT22;42288;52.182;21.156;2023-02-18T02:17:09;8.70;99.90
16980;DHT22;42288;52.182;21.156;2023-02-18T02:25:11;8.60;99.90
16980;DHT22;42288;52.182;21.156;2023-02-18T02:30:49;8.30;99.90
16980;DHT22;42288;52.182;21.156;2023-02-18T02:39:28;8.20;99.90
16980;DHT22;42288;52.182;21.156;2023-02-18T02:42:01;8.30;99.90
16980;DHT22;42288;52.182;21.156;2023-02-18T02:47:00;8.30;99.90
16980;DHT22;42288;52.182;21.156;2023-02-18T02:49:59;8.20;99.90
16980;DHT22;42288;52.182;21.156;2023-02-18T02:52:31;8.30;99.90
16980;DHT22;42288;52.182;21.156;2023-02-18T02:54:58;8.30;99.90
16980;DHT22;42288;52.182;21.156;2023-02-18T02:59:52;8.30;99.90
16980;DHT22;42288;52.182;21.156;2023-02-18T03:15:56;8.30;99.90
16980;DHT22;42288;52.182;21.156;2023-02-18T03:18:39;8.30;99.90
16980;DHT22;42288;52.182;21.156;2023-02-18T03:21:18;8.30;99.90
16980;DHT22;42288;52.182;21.156;2023-02-18T03:23:52;8.20;99.90
16980;DHT22;42288;52.182;21.156;2023-02-18T03:26:21;8.20;99.90
16980;DHT22;42288;52.182;21.156;2023-02-18T03:28:49;8.20;99.90
16980;DHT22;42288;52.182;21.156;2023-02-18T03:31:18;8.20;99.90
16980;DHT22;42288;52.182;21.156;2023-02-18T03:33:51;8.10;99.90
16980;DHT22;42288;52.182;21.156;2023-02-18T03:36:20;8.10;99.90
16980;DHT22;42288;52.182;21.156;2023-02-18T03:38:59;8.10;99.90
16980;DHT22;42288;52.182;21.156;2023-02-18T03:41:25;8.00;99.90
16980;DHT22;42288;52.182;21.156;2023-02-18T03:44:04;8.00;99.90
16980;DHT22;42288;52.182;21.156;2023-02-18T03:46:30;8.00;99.90
16980;DHT22;42288;52.182;21.156;2023-02-18T03:48:56;8.00;99.90
16980;DHT22;42288;52.182;21.156;2023-02-18T03:51:22;8.00;99.90
16980;DHT22;42288;52.182;21.156;2023-02-18T03:53:47;8.00;99.90
16980;DHT22;42288;52.182;21.156;2023-02-18T03:56:16;8.10;99.90
16980;DHT22;42288;52.182;21.156;2023-02-18T03:58:41;8.10;99.80
16980;DHT22;42288;52.182;21.156;2023-02-18T04:01:07;8.10;99.10
16980;DHT22;42288;52.182;21.156;2023-02-18T04:03:33;8.00;99.50
16980;DHT22;42288;52.182;21.156;2023-02-18T04:05:59;8.00;99.90
16980;DHT22;42288;52.182;21.156;2023-02-18T04:08:24;7.90;99.50
16980;DHT22;42288;52.182;21.156;2023-02-18T04:10:50;8.00;99.90
16980;DHT22;42288;52.182;21.156;2023-02-18T04:13:16;7.90;99.80
16980;DHT22;42288;52.182;21.156;2023-02-18T04:15:43;7.90;99.80
16980;DHT22;42288;52.182;21.156;2023-02-18T04:18:09;7.90;99.30
16980;DHT22;42288;52.182;21.156;2023-02-18T04:20:34;7.80;99.50
16980;DHT22;42288;52.182;21.156;2023-02-18T04:23:00;7.90;99.50
16980;DHT22;42288;52.182;21.156;2023-02-18T04:25:26;7.90;99.30
16980;DHT22;42288;52.182;21.156;2023-02-18T04:27:51;7.90;99.30
16980;DHT22;42288;52.182;21.156;2023-02-18T04:30:17;7.90;99.40
16980;DHT22;42288;52.182;21.156;2023-02-18T04:32:43;7.80;99.60
16980;DHT22;42288;52.182;21.156;2023-02-18T04:35:08;7.70;99.70
16980;DHT22;42288;52.182;21.156;2023-02-18T04:37:34;7.70;99.70
16980;DHT22;42288;52.182;21.156;2023-02-18T04:39:59;7.80;99.40
16980;DHT22;42288;52.182;21.156;2023-02-18T04:42:25;7.70;99.50
16980;DHT22;42288;52.182;21.156;2023-02-18T04:44:51;7.70;99.40
16980;DHT22;42288;52.182;21.156;2023-02-18T04:47:16;7.70;99.60
16980;DHT22;42288;52.182;21.156;2023-02-18T04:49:42;7.60;99.20
16980;DHT22;42288;52.182;21.156;2023-02-18T04:52:07;7.60;99.70
16980;DHT22;42288;52.182;21.156;2023-02-18T04:54:33;7.70;99.40
16980;DHT22;42288;52.182;21.156;2023-02-18T04:56:59;7.70;99.00
16980;DHT22;42288;52.182;21.156;2023-02-18T04:59:24;7.60;99.20
16980;DHT22;42288;52.182;21.156;2023-02-18T05:01:50;7.60;99.30
16980;DHT22;42288;52.182;21.156;2023-02-18T05:04:15;7.70;99.30
16980;DHT22;42288;52.182;21.156;2023-02-18T05:06:44;7.70;99.00
16980;DHT22;42288;52.182;21.156;2023-02-18T05:09:10;7.60;99.10
16980;DHT22;42288;52.182;21.156;2023-02-18T05:11:36;7.60;99.10
16980;DHT22;42288;52.182;21.156;2023-02-18T05:14:02;7.70;98.90
16980;DHT22;42288;52.182;21.156;2023-02-18T05:16:27;7.60;99.20
16980;DHT22;42288;52.182;21.156;2023-02-18T05:18:53;7.60;99.20
16980;DHT22;42288;52.182;21.156;2023-02-18T05:21:18;7.60;98.90
16980;DHT22;42288;52.182;21.156;2023-02-18T05:23:44;7.60;99.10
16980;DHT22;42288;52.182;21.156;2023-02-18T05:26:10;7.60;98.80
16980;DHT22;42288;52.182;21.156;2023-02-18T05:28:35;7.60;98.60
16980;DHT22;42288;52.182;21.156;2023-02-18T05:31:01;7.60;99.70
16980;DHT22;42288;52.182;21.156;2023-02-18T05:33:26;7.50;98.90
16980;DHT22;42288;52.182;21.156;2023-02-18T05:35:52;7.60;98.80
16980;DHT22;42288;52.182;21.156;2023-02-18T05:38:18;7.60;98.70
16980;DHT22;42288;52.182;21.156;2023-02-18T05:40:44;7.50;99.00
16980;DHT22;42288;52.182;21.156;2023-02-18T05:43:09;7.60;98.90
16980;DHT22;42288;52.182;21.156;2023-02-18T05:45:35;7.70;98.70
16980;DHT22;42288;52.182;21.156;2023-02-18T05:48:01;7.60;98.60
16980;DHT22;42288;52.182;21.156;2023-02-18T05:50:27;7.60;98.60
16980;DHT22;42288;52.182;21.156;2023-02-18T05:52:52;7.60;98.40
16980;DHT22;42288;52.182;21.156;2023-02-18T05:55:18;7.60;98.60
16980;DHT22;42288;52.182;21.156;2023-02-18T05:57:44;7.60;98.60
16980;DHT22;42288;52.182;21.156;2023-02-18T06:00:10;7.60;98.70
16980;DHT22;42288;52.182;21.156;2023-02-18T06:02:36;7.50;98.40
16980;DHT22;42288;52.182;21.156;2023-02-18T06:05:03;7.60;98.60
16980;DHT22;42288;52.182;21.156;2023-02-18T06:07:28;7.70;98.80
16980;DHT22;42288;52.182;21.156;2023-02-18T06:09:54;7.60;98.60
16980;DHT22;42288;52.182;21.156;2023-02-18T06:12:19;7.60;98.40
16980;DHT22;42288;52.182;21.156;2023-02-18T06:14:45;7.60;98.80
16980;DHT22;42288;52.182;21.156;2023-02-18T06:17:12;7.60;98.50
16980;DHT22;42288;52.182;21.156;2023-02-18T06:19:38;7.60;98.50
16980;DHT22;42288;52.182;21.156;2023-02-18T06:22:04;7.60;98.50
16980;DHT22;42288;52.182;21.156;2023-02-18T06:24:30;7.70;98.50
16980;DHT22;42288;52.182;21.156;2023-02-18T06:26:56;7.70;98.80
16980;DHT22;42288;52.182;21.156;2023-02-18T06:29:21;7.70;98.30
16980;DHT22;42288;52.182;21.156;2023-02-18T06:31:47;7.80;98.00
16980;DHT22;42288;52.182;21.156;2023-02-18T06:34:13;7.70;97.60
16980;DHT22;42288;52.182;21.156;2023-02-18T06:36:38;7.70;97.70
16980;DHT22;42288;52.182;21.156;2023-02-18T06:39:05;7.70;98.00
16980;DHT22;42288;52.182;21.156;2023-02-18T06:41:31;7.80;97.50
16980;DHT22;42288;52.182;21.156;2023-02-18T06:43:57;7.80;97.50
16980;DHT22;42288;52.182;21.156;2023-02-18T06:46:22;7.70;97.80
16980;DHT22;42288;52.182;21.156;2023-02-18T06:48:48;7.70;97.40
16980;DHT22;42288;52.182;21.156;2023-02-18T06:51:14;7.70;97.80
16980;DHT22;42288;52.182;21.156;2023-02-18T06:53:41;7.80;97.80
16980;DHT22;42288;52.182;21.156;2023-02-18T06:56:06;7.70;97.30
16980;DHT22;42288;52.182;21.156;2023-02-18T06:58:32;7.80;97.40
16980;DHT22;42288;52.182;21.156;2023-02-18T07:00:58;7.80;97.80
16980;DHT22;42288;52.182;21.156;2023-02-18T07:03:24;7.80;97.90
16980;DHT22;42288;52.182;21.156;2023-02-18T07:05:49;7.80;97.70
16980;DHT22;42288;52.182;21.156;2023-02-18T07:08:15;7.80;97.60
16980;DHT22;42288;52.182;21.156;2023-02-18T07:10:40;7.90;97.40
16980;DHT22;42288;52.182;21.156;2023-02-18T07:13:06;8.00;97.60
16980;DHT22;42288;52.182;21.156;2023-02-18T07:15:32;8.10;97.30
16980;DHT22;42288;52.182;21.156;2023-02-18T07:17:57;8.10;97.00
16980;DHT22;42288;52.182;21.156;2023-02-18T07:20:24;7.90;96.30
16980;DHT22;42288;52.182;21.156;2023-02-18T07:22:50;7.90;97.00
16980;DHT22;42288;52.182;21.156;2023-02-18T07:25:16;7.90;97.70
16980;DHT22;42288;52.182;21.156;2023-02-18T07:27:42;7.90;97.00
16980;DHT22;42288;52.182;21.156;2023-02-18T07:30:08;7.90;97.10
16980;DHT22;42288;52.182;21.156;2023-02-18T07:32:34;8.00;97.00
16980;DHT22;42288;52.182;21.156;2023-02-18T07:34:59;8.00;97.10
16980;DHT22;42288;52.182;21.156;2023-02-18T07:37:25;8.10;97.30
16980;DHT22;42288;52.182;21.156;2023-02-18T07:39:51;8.10;96.90
16980;DHT22;42288;52.182;21.156;2023-02-18T07:42:16;8.10;96.90
16980;DHT22;42288;52.182;21.156;2023-02-18T07:44:42;8.10;96.70
16980;DHT22;42288;52.182;21.156;2023-02-18T07:47:12;8.00;97.00
16980;DHT22;42288;52.182;21.156;2023-02-18T07:49:38;8.10;96.80
16980;DHT22;42288;52.182;21.156;2023-02-18T07:52:04;8.10;97.00
16980;DHT22;42288;52.182;21.156;2023-02-18T07:54:30;8.30;96.80
16980;DHT22;42288;52.182;21.156;2023-02-18T07:56:55;8.40;96.60
16980;DHT22;42288;52.182;21.156;2023-02-18T07:59:21;8.40;95.90
16980;DHT22;42288;52.182;21.156;2023-02-18T08:01:46;8.50;96.20
16980;DHT22;42288;52.182;21.156;2023-02-18T08:04:12;8.40;95.30
16980;DHT22;42288;52.182;21.156;2023-02-18T08:06:41;8.50;95.60
16980;DHT22;42288;52.182;21.156;2023-02-18T08:09:08;8.40;95.40
16980;DHT22;42288;52.182;21.156;2023-02-18T08:11:34;8.40;95.00
16980;DHT22;42288;52.182;21.156;2023-02-18T08:13:59;8.30;95.70
16980;DHT22;42288;52.182;21.156;2023-02-18T08:16:26;8.40;95.60
16980;DHT22;42288;52.182;21.156;2023-02-18T08:18:51;8.40;95.40
16980;DHT22;42288;52.182;21.156;2023-02-18T08:21:19;8.40;95.50
16980;DHT22;42288;52.182;21.156;2023-02-18T08:23:46;8.40;95.30
16980;DHT22;42288;52.182;21.156;2023-02-18T08:26:12;8.50;95.50
16980;DHT22;42288;52.182;21.156;2023-02-18T08:28:38;8.40;95.10
16980;DHT22;42288;52.182;21.156;2023-02-18T08:31:03;8.60;95.40
16980;DHT22;42288;52.182;21.156;2023-02-18T08:33:29;8.50;95.00
16980;DHT22;42288;52.182;21.156;2023-02-18T08:35:55;8.60;95.10
16980;DHT22;42288;52.182;21.156;2023-02-18T08:38:22;8.50;94.90
16980;DHT22;42288;52.182;21.156;2023-02-18T08:40:49;8.90;95.10
16980;DHT22;42288;52.182;21.156;2023-02-18T08:43:15;8.90;94.40
16980;DHT22;42288;52.182;21.156;2023-02-18T08:45:42;8.80;94.40
16980;DHT22;42288;52.182;21.156;2023-02-18T08:48:09;8.80;94.10
16980;DHT22;42288;52.182;21.156;2023-02-18T08:50:35;8.80;94.20
16980;DHT22;42288;52.182;21.156;2023-02-18T08:53:01;8.80;94.40
16980;DHT22;42288;52.182;21.156;2023-02-18T08:55:34;8.70;94.50
16980;DHT22;42288;52.182;21.156;2023-02-18T08:58:00;8.80;94.10
16980;DHT22;42288;52.182;21.156;2023-02-18T09:00:26;8.90;94.10
16980;DHT22;42288;52.182;21.156;2023-02-18T09:02:51;9.00;93.70
16980;DHT22;42288;52.182;21.156;2023-02-18T09:05:17;9.00;93.50
16980;DHT22;42288;52.182;21.156;2023-02-18T09:07:43;9.00;93.50
16980;DHT22;42288;52.182;21.156;2023-02-18T09:10:09;9.10;93.80
16980;DHT22;42288;52.182;21.156;2023-02-18T09:12:35;9.10;93.40
16980;DHT22;42288;52.182;21.156;2023-02-18T09:15:02;9.10;93.50
16980;DHT22;42288;52.182;21.156;2023-02-18T09:17:29;9.30;93.30
16980;DHT22;42288;52.182;21.156;2023-02-18T09:19:55;9.40;93.40
16980;DHT22;42288;52.182;21.156;2023-02-18T09:22:21;9.20;93.20
16980;DHT22;42288;52.182;21.156;2023-02-18T09:24:46;9.30;93.20
16980;DHT22;42288;52.182;21.156;2023-02-18T09:27:12;9.10;93.00
16980;DHT22;42288;52.182;21.156;2023-02-18T09:29:39;9.10;93.10
16980;DHT22;42288;52.182;21.156;2023-02-18T09:32:05;9.20;92.90
16980;DHT22;42288;52.182;21.156;2023-02-18T09:34:34;9.20;93.00
16980;DHT22;42288;52.182;21.156;2023-02-18T09:36:59;9.10;92.30
16980;DHT22;42288;52.182;21.156;2023-02-18T09:39:25;9.20;92.10
16980;DHT22;42288;52.182;21.156;2023-02-18T09:41:58;9.00;92.80
16980;DHT22;42288;52.182;21.156;2023-02-18T09:44:33;9.20;92.60
16980;DHT22;42288;52.182;21.156;2023-02-18T09:47:05;9.30;91.70
16980;DHT22;42288;52.182;21.156;2023-02-18T09:49:39;9.30;92.20
16980;DHT22;42288;52.182;21.156;2023-02-18T09:52:41;9.40;91.80
16980;DHT22;42288;52.182;21.156;2023-02-18T09:57:49;9.40;91.50
16980;DHT22;42288;52.182;21.156;2023-02-18T10:00:27;9.20;91.90
16980;DHT22;42288;52.182;21.156;2023-02-18T10:02:57;9.30;91.70
16980;DHT22;42288;52.182;21.156;2023-02-18T10:05:25;9.30;91.70
16980;DHT22;42288;52.182;21.156;2023-02-18T10:07:55;9.20;91.80
16980;DHT22;42288;52.182;21.156;2023-02-18T10:13:00;9.50;92.10
16980;DHT22;42288;52.182;21.156;2023-02-18T10:15:29;9.40;91.90
16980;DHT22;42288;52.182;21.156;2023-02-18T10:17:57;9.30;91.90
16980;DHT22;42288;52.182;21.156;2023-02-18T10:20:26;9.20;91.60
16980;DHT22;42288;52.182;21.156;2023-02-18T10:22:53;9.20;91.70
16980;DHT22;42288;52.182;21.156;2023-02-18T10:25:22;9.20;91.40
16980;DHT22;42288;52.182;21.156;2023-02-18T10:27:50;9.20;91.30
16980;DHT22;42288;52.182;21.156;2023-02-18T10:30:36;9.50;91.10
16980;DHT22;42288;52.182;21.156;2023-02-18T10:43:24;9.80;90.30
16980;DHT22;42288;52.182;21.156;2023-02-18T10:51:03;9.80;88.80
16980;DHT22;42288;52.182;21.156;2023-02-18T10:53:35;10.00;87.60
16980;DHT22;42288;52.182;21.156;2023-02-18T10:56:02;9.90;89.20
16980;DHT22;42288;52.182;21.156;2023-02-18T10:58:42;9.70;89.30
16980;DHT22;42288;52.182;21.156;2023-02-18T11:01:19;9.70;90.10
16980;DHT22;42288;52.182;21.156;2023-02-18T11:03:46;9.70;91.20
16980;DHT22;42288;52.182;21.156;2023-02-18T11:09:04;9.90;90.00
16980;DHT22;42288;52.182;21.156;2023-02-18T11:11:33;9.90;90.20
16980;DHT22;42288;52.182;21.156;2023-02-18T11:14:03;9.90;90.40
16980;DHT22;42288;52.182;21.156;2023-02-18T11:16:41;9.70;90.30
16980;DHT22;42288;52.182;21.156;2023-02-18T11:22:24;9.40;91.60
16980;DHT22;42288;52.182;21.156;2023-02-18T11:25:01;9.40;91.60
16980;DHT22;42288;52.182;21.156;2023-02-18T11:27:43;9.40;91.30
16980;DHT22;42288;52.182;21.156;2023-02-18T11:30:36;9.50;91.70
16980;DHT22;42288;52.182;21.156;2023-02-18T11:35:34;9.80;91.70
16980;DHT22;42288;52.182;21.156;2023-02-18T11:38:02;10.00;90.30
16980;DHT22;42288;52.182;21.156;2023-02-18T11:40:32;9.90;90.60
16980;DHT22;42288;52.182;21.156;2023-02-18T11:43:26;9.90;90.50
16980;DHT22;42288;52.182;21.156;2023-02-18T11:46:13;9.90;90.90
16980;DHT22;42288;52.182;21.156;2023-02-18T11:48:40;9.90;91.20
16980;DHT22;42288;52.182;21.156;2023-02-18T11:51:15;9.80;91.20
16980;DHT22;42288;52.182;21.156;2023-02-18T11:53:57;9.90;91.30
16980;DHT22;42288;52.182;21.156;2023-02-18T11:56:27;10.10;90.20
16980;DHT22;42288;52.182;21.156;2023-02-18T11:58:54;9.90;90.10
16980;DHT22;42288;52.182;21.156;2023-02-18T12:01:44;9.80;90.40
16980;DHT22;42288;52.182;21.156;2023-02-18T12:04:15;9.80;90.30
16980;DHT22;42288;52.182;21.156;2023-02-18T12:06:49;9.80;90.40
16980;DHT22;42288;52.182;21.156;2023-02-18T12:09:55;9.70;90.90
16980;DHT22;42288;52.182;21.156;2023-02-18T12:12:30;9.70;91.40
16980;DHT22;42288;52.182;21.156;2023-02-18T12:14:58;9.70;90.80
16980;DHT22;42288;52.182;21.156;2023-02-18T12:31:03;10.00;89.30
16980;DHT22;42288;52.182;21.156;2023-02-18T12:39:20;10.00;90.20
16980;DHT22;42288;52.182;21.156;2023-02-18T12:41:56;9.70;90.70
16980;DHT22;42288;52.182;21.156;2023-02-18T13:01:00;10.00;89.20
16980;DHT22;42288;52.182;21.156;2023-02-18T13:09:09;10.20;87.60
16980;DHT22;42288;52.182;21.156;2023-02-18T13:14:59;10.30;87.20
16980;DHT22;42288;52.182;21.156;2023-02-18T13:17:30;10.10;87.30
16980;DHT22;42288;52.182;21.156;2023-02-18T13:20:41;10.00;87.80
16980;DHT22;42288;52.182;21.156;2023-02-18T13:23:25;9.80;89.40
16980;DHT22;42288;52.182;21.156;2023-02-18T13:25:56;9.60;90.60
16980;DHT22;42288;52.182;21.156;2023-02-18T13:39:22;9.60;90.80
16980;DHT22;42288;52.182;21.156;2023-02-18T13:41:51;9.50;90.80
16980;DHT22;42288;52.182;21.156;2023-02-18T13:46:53;9.50;91.00
16980;DHT22;42288;52.182;21.156;2023-02-18T13:49:38;9.40;90.80
16980;DHT22;42288;52.182;21.156;2023-02-18T13:52:05;9.20;91.30
16980;DHT22;42288;52.182;21.156;2023-02-18T13:54:45;9.30;91.60
16980;DHT22;42288;52.182;21.156;2023-02-18T13:57:20;9.10;91.90
16980;DHT22;42288;52.182;21.156;2023-02-18T13:59:55;9.10;92.20
16980;DHT22;42288;52.182;21.156;2023-02-18T14:04:52;9.10;92.20
16980;DHT22;42288;52.182;21.156;2023-02-18T14:09:57;9.20;92.30
16980;DHT22;42288;52.182;21.156;2023-02-18T14:12:34;9.20;92.20
16980;DHT22;42288;52.182;21.156;2023-02-18T14:31:04;8.90;92.20
16980;DHT22;42288;52.182;21.156;2023-02-18T14:33:31;8.90;92.20
16980;DHT22;42288;52.182;21.156;2023-02-18T14:44:01;8.90;92.60
16980;DHT22;42288;52.182;21.156;2023-02-18T14:49:42;8.80;92.90
16980;DHT22;42288;52.182;21.156;2023-02-18T14:54:45;8.80;93.20
16980;DHT22;42288;52.182;21.156;2023-02-18T14:57:21;8.90;93.40
16980;DHT22;42288;52.182;21.156;2023-02-18T14:59:57;8.90;93.50
16980;DHT22;42288;52.182;21.156;2023-02-18T15:02:26;8.90;93.20
16980;DHT22;42288;52.182;21.156;2023-02-18T15:04:52;8.90;93.30
16980;DHT22;42288;52.182;21.156;2023-02-18T15:07:21;8.90;94.00
16980;DHT22;42288;52.182;21.156;2023-02-18T15:09:51;8.80;94.30
16980;DHT22;42288;52.182;21.156;2023-02-18T15:12:19;8.90;95.00
16980;DHT22;42288;52.182;21.156;2023-02-18T15:14:47;8.70;95.80
16980;DHT22;42288;52.182;21.156;2023-02-18T15:17:25;8.40;98.00
16980;DHT22;42288;52.182;21.156;2023-02-18T15:19:56;7.60;99.90
16980;DHT22;42288;52.182;21.156;2023-02-18T15:22:24;7.10;99.90
16980;DHT22;42288;52.182;21.156;2023-02-18T15:24:53;6.70;99.90
16980;DHT22;42288;52.182;21.156;2023-02-18T15:27:22;6.50;99.90
16980;DHT22;42288;52.182;21.156;2023-02-18T15:29:50;6.30;99.90
16980;DHT22;42288;52.182;21.156;2023-02-18T15:32:27;6.10;99.90
16980;DHT22;42288;52.182;21.156;2023-02-18T15:34:56;5.90;99.90
16980;DHT22;42288;52.182;21.156;2023-02-18T15:37:23;5.60;99.90
16980;DHT22;42288;52.182;21.156;2023-02-18T15:39:48;5.60;99.90
16980;DHT22;42288;52.182;21.156;2023-02-18T15:42:34;5.50;99.90
16980;DHT22;42288;52.182;21.156;2023-02-18T15:45:15;5.50;99.90
16980;DHT22;42288;52.182;21.156;2023-02-18T15:47:43;5.40;99.90
16980;DHT22;42288;52.182;21.156;2023-02-18T15:50:20;5.40;99.90
16980;DHT22;42288;52.182;21.156;2023-02-18T15:52:47;5.30;99.90
16980;DHT22;42288;52.182;21.156;2023-02-18T15:55:31;5.20;99.90
16980;DHT22;42288;52.182;21.156;2023-02-18T15:58:00;5.10;99.90
16980;DHT22;42288;52.182;21.156;2023-02-18T16:00:39;5.10;99.90
16980;DHT22;42288;52.182;21.156;2023-02-18T16:03:25;5.10;99.90
16980;DHT22;42288;52.182;21.156;2023-02-18T16:06:11;5.00;99.90
16980;DHT22;42288;52.182;21.156;2023-02-18T16:09:31;5.00;99.90
16980;DHT22;42288;52.182;21.156;2023-02-18T16:11:34;5.10;99.90
16980;DHT22;42288;52.182;21.156;2023-02-18T16:14:01;5.10;99.90
16980;DHT22;42288;52.182;21.156;2023-02-18T16:16:36;5.20;99.90
16980;DHT22;42288;52.182;21.156;2023-02-18T16:19:04;5.20;99.90
16980;DHT22;42288;52.182;21.156;2023-02-18T16:21:39;5.30;99.90
16980;DHT22;42288;52.182;21.156;2023-02-18T16:24:29;5.30;99.90
16980;DHT22;42288;52.182;21.156;2023-02-18T16:26:58;5.40;99.90
16980;DHT22;42288;52.182;21.156;2023-02-18T16:29:44;5.30;99.90
16980;DHT22;42288;52.182;21.156;2023-02-18T16:32:10;5.40;99.90
16980;DHT22;42288;52.182;21.156;2023-02-18T16:34:35;5.40;99.90
16980;DHT22;42288;52.182;21.156;2023-02-18T16:37:01;5.30;99.90
16980;DHT22;42288;52.182;21.156;2023-02-18T16:39:46;5.40;99.90
16980;DHT22;42288;52.182;21.156;2023-02-18T16:42:13;5.50;99.90
16980;DHT22;42288;52.182;21.156;2023-02-18T16:44:39;5.50;99.90
16980;DHT22;42288;52.182;21.156;2023-02-18T16:47:05;5.60;99.90
16980;DHT22;42288;52.182;21.156;2023-02-18T16:49:32;5.60;99.90
16980;DHT22;42288;52.182;21.156;2023-02-18T16:52:00;5.70;99.90
16980;DHT22;42288;52.182;21.156;2023-02-18T16:54:29;5.70;99.90
16980;DHT22;42288;52.182;21.156;2023-02-18T16:56:55;5.70;99.90
16980;DHT22;42288;52.182;21.156;2023-02-18T16:59:21;5.70;99.90
16980;DHT22;42288;52.182;21.156;2023-02-18T17:01:46;5.80;99.90
16980;DHT22;42288;52.182;21.156;2023-02-18T17:04:16;5.80;99.90
16980;DHT22;42288;52.182;21.156;2023-02-18T17:06:43;5.70;99.90
16980;DHT22;42288;52.182;21.156;2023-02-18T17:09:20;5.70;99.90
16980;DHT22;42288;52.182;21.156;2023-02-18T17:11:48;5.80;99.90
16980;DHT22;42288;52.182;21.156;2023-02-18T17:14:17;5.70;99.90
16980;DHT22;42288;52.182;21.156;2023-02-18T17:16:47;5.80;99.90
16980;DHT22;42288;52.182;21.156;2023-02-18T17:19:14;5.80;99.90
16980;DHT22;42288;52.182;21.156;2023-02-18T17:21:40;5.80;99.90
16980;DHT22;42288;52.182;21.156;2023-02-18T17:24:13;5.70;99.90
16980;DHT22;42288;52.182;21.156;2023-02-18T17:26:39;5.70;99.90
16980;DHT22;42288;52.182;21.156;2023-02-18T17:29:05;5.60;99.90
16980;DHT22;42288;52.182;21.156;2023-02-18T17:31:37;5.80;99.90
16980;DHT22;42288;52.182;21.156;2023-02-18T17:34:06;5.80;99.90
16980;DHT22;42288;52.182;21.156;2023-02-18T17:36:33;5.90;99.90
16980;DHT22;42288;52.182;21.156;2023-02-18T17:38:59;5.90;99.90
16980;DHT22;42288;52.182;21.156;2023-02-18T17:41:25;6.00;99.90
16980;DHT22;42288;52.182;21.156;2023-02-18T17:43:50;6.10;99.90
16980;DHT22;42288;52.182;21.156;2023-02-18T17:46:18;6.10;99.90
16980;DHT22;42288;52.182;21.156;2023-02-18T17:48:45;6.30;99.90
16980;DHT22;42288;52.182;21.156;2023-02-18T17:53:44;6.30;99.90
16980;DHT22;42288;52.182;21.156;2023-02-18T17:56:11;6.30;99.90
16980;DHT22;42288;52.182;21.156;2023-02-18T17:58:37;6.40;99.90
16980;DHT22;42288;52.182;21.156;2023-02-18T18:01:03;6.50;99.90
16980;DHT22;42288;52.182;21.156;2023-02-18T18:03:28;6.50;99.90
16980;DHT22;42288;52.182;21.156;2023-02-18T18:05:54;6.60;99.90
16980;DHT22;42288;52.182;21.156;2023-02-18T18:08:22;6.60;99.90
16980;DHT22;42288;52.182;21.156;2023-02-18T18:10:53;6.60;99.90
16980;DHT22;42288;52.182;21.156;2023-02-18T18:13:22;6.60;99.90
16980;DHT22;42288;52.182;21.156;2023-02-18T18:15:49;6.60;99.90
16980;DHT22;42288;52.182;21.156;2023-02-18T18:18:15;6.70;99.90
16980;DHT22;42288;52.182;21.156;2023-02-18T18:20:45;6.70;99.90
16980;DHT22;42288;52.182;21.156;2023-02-18T18:23:12;6.80;99.90
16980;DHT22;42288;52.182;21.156;2023-02-18T18:25:40;6.80;99.90
16980;DHT22;42288;52.182;21.156;2023-02-18T18:28:06;6.70;99.90